sensor_id;sensor_type;location;lat;lon;timestamp;P1;durP1;ratioP1;P2;durP2;ratioP2
26536;SDS011;14204;51.262;5.488;2023-02-20T00:01:55;23.40;;;12.98;;
26536;SDS011;14204;51.262;5.488;2023-02-20T00:04:21;21.60;;;13.95;;
26536;SDS011;14204;51.262;5.488;2023-02-20T00:06:47;22.98;;;13.73;;
26536;SDS011;14204;51.262;5.488;2023-02-20T00:09:12;23.05;;;13.70;;
26536;SDS011;14204;51.262;5.488;2023-02-20T00:11:38;20.55;;;12.85;;
26536;SDS011;14204;51.262;5.488;2023-02-20T00:14:03;19.95;;;11.88;;
26536;SDS011;14204;51.262;5.488;2023-02-20T00:16:29;27.45;;;13.93;;
26536;SDS011;14204;51.262;5.488;2023-02-20T00:18:55;22.13;;;12.82;;
26536;SDS011;14204;51.262;5.488;2023-02-20T00:21:20;19.83;;;12.52;;
26536;SDS011;14204;51.262;5.488;2023-02-20T00:23:46;22.38;;;12.95;;
26536;SDS011;14204;51.262;5.488;2023-02-20T00:26:12;26.83;;;13.13;;
26536;SDS011;14204;51.262;5.488;2023-02-20T00:28:39;23.23;;;13.23;;
26536;SDS011;14204;51.262;5.488;2023-02-20T00:31:06;24.90;;;12.80;;
26536;SDS011;14204;51.262;5.488;2023-02-20T00:33:35;23.15;;;13.65;;
26536;SDS011;14204;51.262;5.488;2023-02-20T00:36:02;26.75;;;14.43;;
26536;SDS011;14204;51.262;5.488;2023-02-20T00:38:28;26.58;;;14.75;;
26536;SDS011;14204;51.262;5.488;2023-02-20T00:40:53;29.20;;;15.77;;
26536;SDS011;14204;51.262;5.488;2023-02-20T00:43:19;33.65;;;17.65;;
26536;SDS011;14204;51.262;5.488;2023-02-20T00:45:44;26.27;;;16.15;;
26536;SDS011;14204;51.262;5.488;2023-02-20T00:48:10;30.67;;;15.43;;
26536;SDS011;14204;51.262;5.488;2023-02-20T00:50:36;31.45;;;16.55;;
26536;SDS011;14204;51.262;5.488;2023-02-20T00:53:01;28.08;;;15.20;;
26536;SDS011;14204;51.262;5.488;2023-02-20T00:55:27;28.85;;;16.52;;
26536;SDS011;14204;51.262;5.488;2023-02-20T00:57:53;27.05;;;16.13;;
26536;SDS011;14204;51.262;5.488;2023-02-20T01:00:26;26.77;;;15.13;;
26536;SDS011;14204;51.262;5.488;2023-02-20T01:02:54;32.55;;;16.02;;
26536;SDS011;14204;51.262;5.488;2023-02-20T01:05:20;30.33;;;16.25;;
26536;SDS011;14204;51.262;5.488;2023-02-20T01:07:46;32.08;;;16.58;;
26536;SDS011;14204;51.262;5.488;2023-02-20T01:10:11;35.03;;;17.17;;
26536;SDS011;14204;51.262;5.488;2023-02-20T01:12:38;29.23;;;15.93;;
26536;SDS011;14204;51.262;5.488;2023-02-20T01:15:05;32.88;;;17.80;;
26536;SDS011;14204;51.262;5.488;2023-02-20T01:17:34;30.75;;;16.92;;
26536;SDS011;14204;51.262;5.488;2023-02-20T01:20:00;30.92;;;16.73;;
26536;SDS011;14204;51.262;5.488;2023-02-20T01:22:25;31.67;;;17.08;;
26536;SDS011;14204;51.262;5.488;2023-02-20T01:24:51;34.63;;;16.90;;
26536;SDS011;14204;51.262;5.488;2023-02-20T01:27:17;27.60;;;16.25;;
26536;SDS011;14204;51.262;5.488;2023-02-20T01:29:42;32.70;;;17.77;;
26536;SDS011;14204;51.262;5.488;2023-02-20T01:32:10;29.48;;;15.95;;
26536;SDS011;14204;51.262;5.488;2023-02-20T01:34:36;33.92;;;17.80;;
26536;SDS011;14204;51.262;5.488;2023-02-20T01:37:02;34.40;;;17.80;;
26536;SDS011;14204;51.262;5.488;2023-02-20T01:39:28;37.85;;;18.23;;
26536;SDS011;14204;51.262;5.488;2023-02-20T01:42:01;34.38;;;17.30;;
26536;SDS011;14204;51.262;5.488;2023-02-20T01:44:35;38.47;;;18.15;;
26536;SDS011;14204;51.262;5.488;2023-02-20T01:47:05;32.65;;;17.98;;
26536;SDS011;14204;51.262;5.488;2023-02-20T01:52:10;37.80;;;19.10;;
26536;SDS011;14204;51.262;5.488;2023-02-20T01:54:41;32.45;;;16.88;;
26536;SDS011;14204;51.262;5.488;2023-02-20T01:57:11;37.90;;;19.67;;
26536;SDS011;14204;51.262;5.488;2023-02-20T01:59:41;35.60;;;18.05;;
26536;SDS011;14204;51.262;5.488;2023-02-20T02:02:07;34.88;;;17.40;;
26536;SDS011;14204;51.262;5.488;2023-02-20T02:04:34;32.28;;;17.63;;
26536;SDS011;14204;51.262;5.488;2023-02-20T02:07:02;37.58;;;18.80;;
26536;SDS011;14204;51.262;5.488;2023-02-20T02:09:32;35.53;;;18.67;;
26536;SDS011;14204;51.262;5.488;2023-02-20T02:12:22;32.20;;;17.42;;
26536;SDS011;14204;51.262;5.488;2023-02-20T02:14:48;37.47;;;18.40;;
26536;SDS011;14204;51.262;5.488;2023-02-20T02:20:05;33.92;;;16.45;;
26536;SDS011;14204;51.262;5.488;2023-02-20T02:28:25;30.75;;;15.60;;
26536;SDS011;14204;51.262;5.488;2023-02-20T02:36:35;36.58;;;15.98;;
26536;SDS011;14204;51.262;5.488;2023-02-20T02:41:43;33.73;;;16.37;;
26536;SDS011;14204;51.262;5.488;2023-02-20T02:44:22;31.70;;;16.15;;
26536;SDS011;14204;51.262;5.488;2023-02-20T02:47:05;28.58;;;15.25;;
26536;SDS011;14204;51.262;5.488;2023-02-20T02:50:09;32.70;;;15.32;;
26536;SDS011;14204;51.262;5.488;2023-02-20T02:52:40;40.95;;;16.42;;
26536;SDS011;14204;51.262;5.488;2023-02-20T02:55:23;35.35;;;17.17;;
26536;SDS011;14204;51.262;5.488;2023-02-20T02:57:51;37.22;;;15.80;;
26536;SDS011;14204;51.262;5.488;2023-02-20T03:00:18;28.45;;;14.38;;
26536;SDS011;14204;51.262;5.488;2023-02-20T03:05:35;37.50;;;18.45;;
26536;SDS011;14204;51.262;5.488;2023-02-20T03:08:16;35.58;;;15.70;;
26536;SDS011;14204;51.262;5.488;2023-02-20T03:10:46;42.63;;;19.00;;
26536;SDS011;14204;51.262;5.488;2023-02-20T03:13:17;31.88;;;17.55;;
26536;SDS011;14204;51.262;5.488;2023-02-20T03:15:48;36.13;;;16.25;;
26536;SDS011;14204;51.262;5.488;2023-02-20T03:18:22;39.40;;;17.58;;
26536;SDS011;14204;51.262;5.488;2023-02-20T03:21:02;36.97;;;18.20;;
26536;SDS011;14204;51.262;5.488;2023-02-20T03:23:34;36.15;;;17.50;;
26536;SDS011;14204;51.262;5.488;2023-02-20T03:26:08;34.95;;;16.33;;
26536;SDS011;14204;51.262;5.488;2023-02-20T03:28:42;38.72;;;18.23;;
26536;SDS011;14204;51.262;5.488;2023-02-20T03:31:55;37.47;;;18.40;;
26536;SDS011;14204;51.262;5.488;2023-02-20T03:36:58;41.85;;;19.45;;
26536;SDS011;14204;51.262;5.488;2023-02-20T03:39:48;40.83;;;21.38;;
26536;SDS011;14204;51.262;5.488;2023-02-20T03:42:40;42.35;;;20.83;;
26536;SDS011;14204;51.262;5.488;2023-02-20T03:45:28;42.88;;;20.52;;
26536;SDS011;14204;51.262;5.488;2023-02-20T03:47:58;40.17;;;18.85;;
26536;SDS011;14204;51.262;5.488;2023-02-20T03:50:26;37.85;;;18.35;;
26536;SDS011;14204;51.262;5.488;2023-02-20T03:53:11;43.92;;;21.60;;
26536;SDS011;14204;51.262;5.488;2023-02-20T03:55:38;43.53;;;20.95;;
26536;SDS011;14204;51.262;5.488;2023-02-20T03:58:04;40.88;;;20.55;;
26536;SDS011;14204;51.262;5.488;2023-02-20T04:00:38;38.58;;;20.50;;
26536;SDS011;14204;51.262;5.488;2023-02-20T04:03:08;49.45;;;21.27;;
26536;SDS011;14204;51.262;5.488;2023-02-20T04:05:39;41.30;;;18.85;;
26536;SDS011;14204;51.262;5.488;2023-02-20T04:11:17;38.72;;;21.75;;
26536;SDS011;14204;51.262;5.488;2023-02-20T04:13:54;43.53;;;21.98;;
26536;SDS011;14204;51.262;5.488;2023-02-20T04:16:21;42.70;;;20.05;;
26536;SDS011;14204;51.262;5.488;2023-02-20T04:18:48;47.83;;;21.70;;
26536;SDS011;14204;51.262;5.488;2023-02-20T04:21:19;46.33;;;22.13;;
26536;SDS011;14204;51.262;5.488;2023-02-20T04:23:51;47.17;;;23.00;;
26536;SDS011;14204;51.262;5.488;2023-02-20T04:26:27;49.30;;;21.25;;
26536;SDS011;14204;51.262;5.488;2023-02-20T04:28:52;37.92;;;19.20;;
26536;SDS011;14204;51.262;5.488;2023-02-20T04:31:18;38.65;;;19.58;;
26536;SDS011;14204;51.262;5.488;2023-02-20T04:33:45;41.05;;;20.52;;
26536;SDS011;14204;51.262;5.488;2023-02-20T04:36:11;44.67;;;21.02;;
26536;SDS011;14204;51.262;5.488;2023-02-20T04:38:36;40.90;;;19.20;;
26536;SDS011;14204;51.262;5.488;2023-02-20T04:41:02;46.08;;;20.05;;
26536;SDS011;14204;51.262;5.488;2023-02-20T04:43:28;39.17;;;19.13;;
26536;SDS011;14204;51.262;5.488;2023-02-20T04:45:53;37.63;;;19.73;;
26536;SDS011;14204;51.262;5.488;2023-02-20T04:48:19;42.08;;;20.45;;
26536;SDS011;14204;51.262;5.488;2023-02-20T04:50:45;40.83;;;20.02;;
26536;SDS011;14204;51.262;5.488;2023-02-20T04:53:10;40.72;;;19.30;;
26536;SDS011;14204;51.262;5.488;2023-02-20T04:55:36;47.22;;;20.52;;
26536;SDS011;14204;51.262;5.488;2023-02-20T04:58:02;41.70;;;22.00;;
26536;SDS011;14204;51.262;5.488;2023-02-20T05:00:27;45.08;;;21.60;;
26536;SDS011;14204;51.262;5.488;2023-02-20T05:02:53;42.80;;;20.60;;
26536;SDS011;14204;51.262;5.488;2023-02-20T05:05:20;40.78;;;19.02;;
26536;SDS011;14204;51.262;5.488;2023-02-20T05:07:47;39.47;;;19.27;;
26536;SDS011;14204;51.262;5.488;2023-02-20T05:10:17;38.70;;;17.45;;
26536;SDS011;14204;51.262;5.488;2023-02-20T05:12:44;39.75;;;19.10;;
26536;SDS011;14204;51.262;5.488;2023-02-20T05:15:10;36.28;;;16.67;;
26536;SDS011;14204;51.262;5.488;2023-02-20T05:17:36;38.63;;;18.45;;
26536;SDS011;14204;51.262;5.488;2023-02-20T05:20:02;41.05;;;17.85;;
26536;SDS011;14204;51.262;5.488;2023-02-20T05:22:29;35.78;;;18.30;;
26536;SDS011;14204;51.262;5.488;2023-02-20T05:24:54;36.20;;;16.77;;
26536;SDS011;14204;51.262;5.488;2023-02-20T05:27:21;39.75;;;17.42;;
26536;SDS011;14204;51.262;5.488;2023-02-20T05:29:48;34.72;;;17.08;;
26536;SDS011;14204;51.262;5.488;2023-02-20T05:32:18;43.88;;;17.65;;
26536;SDS011;14204;51.262;5.488;2023-02-20T05:34:45;39.78;;;18.05;;
26536;SDS011;14204;51.262;5.488;2023-02-20T05:37:12;35.85;;;16.65;;
26536;SDS011;14204;51.262;5.488;2023-02-20T05:39:39;38.00;;;16.42;;
26536;SDS011;14204;51.262;5.488;2023-02-20T05:42:05;36.70;;;16.00;;
26536;SDS011;14204;51.262;5.488;2023-02-20T05:44:31;41.83;;;16.55;;
26536;SDS011;14204;51.262;5.488;2023-02-20T05:46:57;32.53;;;15.15;;
26536;SDS011;14204;51.262;5.488;2023-02-20T05:49:22;34.03;;;15.52;;
26536;SDS011;14204;51.262;5.488;2023-02-20T05:51:48;35.58;;;15.75;;
26536;SDS011;14204;51.262;5.488;2023-02-20T05:54:15;39.35;;;16.98;;
26536;SDS011;14204;51.262;5.488;2023-02-20T05:56:42;37.92;;;15.93;;
26536;SDS011;14204;51.262;5.488;2023-02-20T05:59:08;32.95;;;16.40;;
26536;SDS011;14204;51.262;5.488;2023-02-20T06:01:34;37.72;;;17.02;;
26536;SDS011;14204;51.262;5.488;2023-02-20T06:03:59;33.88;;;14.85;;
26536;SDS011;14204;51.262;5.488;2023-02-20T06:06:32;33.90;;;15.40;;
26536;SDS011;14204;51.262;5.488;2023-02-20T06:08:59;40.38;;;15.52;;
26536;SDS011;14204;51.262;5.488;2023-02-20T06:11:24;40.95;;;16.33;;
26536;SDS011;14204;51.262;5.488;2023-02-20T06:13:50;34.00;;;15.10;;
26536;SDS011;14204;51.262;5.488;2023-02-20T06:16:21;31.67;;;14.20;;
26536;SDS011;14204;51.262;5.488;2023-02-20T06:18:48;32.50;;;14.00;;
26536;SDS011;14204;51.262;5.488;2023-02-20T06:21:14;36.25;;;14.38;;
26536;SDS011;14204;51.262;5.488;2023-02-20T06:23:41;35.10;;;15.05;;
26536;SDS011;14204;51.262;5.488;2023-02-20T06:26:10;34.42;;;15.70;;
26536;SDS011;14204;51.262;5.488;2023-02-20T06:28:36;27.65;;;14.18;;
26536;SDS011;14204;51.262;5.488;2023-02-20T06:31:03;35.80;;;14.57;;
26536;SDS011;14204;51.262;5.488;2023-02-20T06:33:29;26.75;;;13.93;;
26536;SDS011;14204;51.262;5.488;2023-02-20T06:35:55;39.03;;;15.35;;
26536;SDS011;14204;51.262;5.488;2023-02-20T06:38:21;35.60;;;15.07;;
26536;SDS011;14204;51.262;5.488;2023-02-20T06:40:47;32.10;;;13.82;;
26536;SDS011;14204;51.262;5.488;2023-02-20T06:43:12;31.95;;;15.60;;
26536;SDS011;14204;51.262;5.488;2023-02-20T06:45:38;34.20;;;14.55;;
26536;SDS011;14204;51.262;5.488;2023-02-20T06:48:04;32.88;;;14.82;;
26536;SDS011;14204;51.262;5.488;2023-02-20T06:50:29;35.72;;;14.68;;
26536;SDS011;14204;51.262;5.488;2023-02-20T06:52:55;35.13;;;13.82;;
26536;SDS011;14204;51.262;5.488;2023-02-20T06:55:20;31.55;;;15.25;;
26536;SDS011;14204;51.262;5.488;2023-02-20T06:57:46;37.97;;;14.80;;
26536;SDS011;14204;51.262;5.488;2023-02-20T07:00:13;45.47;;;16.15;;
26536;SDS011;14204;51.262;5.488;2023-02-20T07:02:39;37.08;;;15.18;;
26536;SDS011;14204;51.262;5.488;2023-02-20T07:05:05;32.83;;;15.68;;
26536;SDS011;14204;51.262;5.488;2023-02-20T07:07:32;29.90;;;15.05;;
26536;SDS011;14204;51.262;5.488;2023-02-20T07:09:58;35.03;;;15.63;;
26536;SDS011;14204;51.262;5.488;2023-02-20T07:12:27;34.35;;;14.63;;
26536;SDS011;14204;51.262;5.488;2023-02-20T07:14:54;30.35;;;15.15;;
26536;SDS011;14204;51.262;5.488;2023-02-20T07:17:20;34.35;;;14.55;;
26536;SDS011;14204;51.262;5.488;2023-02-20T07:19:46;30.23;;;14.82;;
26536;SDS011;14204;51.262;5.488;2023-02-20T07:22:11;24.35;;;13.55;;
26536;SDS011;14204;51.262;5.488;2023-02-20T07:24:37;26.73;;;13.52;;
26536;SDS011;14204;51.262;5.488;2023-02-20T07:27:05;26.27;;;13.75;;
26536;SDS011;14204;51.262;5.488;2023-02-20T07:29:31;29.08;;;12.05;;
26536;SDS011;14204;51.262;5.488;2023-02-20T07:31:57;24.95;;;11.82;;
26536;SDS011;14204;51.262;5.488;2023-02-20T07:34:22;27.58;;;13.00;;
26536;SDS011;14204;51.262;5.488;2023-02-20T07:36:48;25.13;;;11.68;;
26536;SDS011;14204;51.262;5.488;2023-02-20T07:39:13;23.10;;;11.40;;
26536;SDS011;14204;51.262;5.488;2023-02-20T07:41:40;24.13;;;11.95;;
26536;SDS011;14204;51.262;5.488;2023-02-20T07:44:06;22.88;;;12.73;;
26536;SDS011;14204;51.262;5.488;2023-02-20T07:46:32;28.23;;;13.32;;
26536;SDS011;14204;51.262;5.488;2023-02-20T07:49:02;37.45;;;14.88;;
26536;SDS011;14204;51.262;5.488;2023-02-20T07:51:29;25.88;;;13.65;;
26536;SDS011;14204;51.262;5.488;2023-02-20T07:53:55;30.98;;;14.25;;
26536;SDS011;14204;51.262;5.488;2023-02-20T07:56:21;26.63;;;12.65;;
26536;SDS011;14204;51.262;5.488;2023-02-20T07:58:47;29.67;;;13.10;;
26536;SDS011;14204;51.262;5.488;2023-02-20T08:01:13;28.67;;;11.10;;
26536;SDS011;14204;51.262;5.488;2023-02-20T08:03:39;26.90;;;11.52;;
26536;SDS011;14204;51.262;5.488;2023-02-20T08:06:05;27.02;;;12.43;;
26536;SDS011;14204;51.262;5.488;2023-02-20T08:08:31;28.67;;;10.90;;
26536;SDS011;14204;51.262;5.488;2023-02-20T08:10:56;20.45;;;10.32;;
26536;SDS011;14204;51.262;5.488;2023-02-20T08:13:22;24.23;;;10.13;;
26536;SDS011;14204;51.262;5.488;2023-02-20T08:15:48;17.13;;;10.65;;
26536;SDS011;14204;51.262;5.488;2023-02-20T08:18:14;26.05;;;10.35;;
26536;SDS011;14204;51.262;5.488;2023-02-20T08:20:40;20.75;;;10.63;;
26536;SDS011;14204;51.262;5.488;2023-02-20T08:23:12;22.92;;;11.35;;
26536;SDS011;14204;51.262;5.488;2023-02-20T08:25:42;30.83;;;11.35;;
26536;SDS011;14204;51.262;5.488;2023-02-20T08:28:08;26.48;;;11.45;;
26536;SDS011;14204;51.262;5.488;2023-02-20T08:30:34;24.15;;;11.02;;
26536;SDS011;14204;51.262;5.488;2023-02-20T08:32:59;20.63;;;10.45;;
26536;SDS011;14204;51.262;5.488;2023-02-20T08:35:30;20.27;;;10.73;;
26536;SDS011;14204;51.262;5.488;2023-02-20T08:37:59;28.98;;;11.90;;
26536;SDS011;14204;51.262;5.488;2023-02-20T08:40:25;28.33;;;11.98;;
26536;SDS011;14204;51.262;5.488;2023-02-20T08:42:51;26.20;;;10.93;;
26536;SDS011;14204;51.262;5.488;2023-02-20T08:45:17;25.33;;;10.85;;
26536;SDS011;14204;51.262;5.488;2023-02-20T08:47:42;21.60;;;11.15;;
26536;SDS011;14204;51.262;5.488;2023-02-20T08:50:08;23.85;;;10.38;;
26536;SDS011;14204;51.262;5.488;2023-02-20T08:52:34;26.10;;;11.38;;
26536;SDS011;14204;51.262;5.488;2023-02-20T08:55:00;24.80;;;9.95;;
26536;SDS011;14204;51.262;5.488;2023-02-20T08:57:25;21.90;;;12.20;;
26536;SDS011;14204;51.262;5.488;2023-02-20T08:59:51;25.63;;;12.40;;
26536;SDS011;14204;51.262;5.488;2023-02-20T09:02:17;25.23;;;11.57;;
26536;SDS011;14204;51.262;5.488;2023-02-20T09:04:45;23.92;;;11.50;;
26536;SDS011;14204;51.262;5.488;2023-02-20T09:07:12;22.45;;;11.50;;
26536;SDS011;14204;51.262;5.488;2023-02-20T09:09:38;24.77;;;11.20;;
26536;SDS011;14204;51.262;5.488;2023-02-20T09:12:04;24.63;;;12.55;;
26536;SDS011;14204;51.262;5.488;2023-02-20T09:14:29;27.92;;;12.82;;
26536;SDS011;14204;51.262;5.488;2023-02-20T09:16:55;29.02;;;11.10;;
26536;SDS011;14204;51.262;5.488;2023-02-20T09:19:21;24.23;;;11.07;;
26536;SDS011;14204;51.262;5.488;2023-02-20T09:21:48;29.45;;;12.07;;
26536;SDS011;14204;51.262;5.488;2023-02-20T09:24:14;28.80;;;12.32;;
26536;SDS011;14204;51.262;5.488;2023-02-20T09:26:40;27.33;;;12.15;;
26536;SDS011;14204;51.262;5.488;2023-02-20T09:29:05;26.13;;;11.30;;
26536;SDS011;14204;51.262;5.488;2023-02-20T09:31:31;22.38;;;12.32;;
26536;SDS011;14204;51.262;5.488;2023-02-20T09:33:56;28.67;;;12.43;;
26536;SDS011;14204;51.262;5.488;2023-02-20T09:36:22;22.38;;;10.23;;
26536;SDS011;14204;51.262;5.488;2023-02-20T09:38:48;24.67;;;11.23;;
26536;SDS011;14204;51.262;5.488;2023-02-20T09:42:00;26.20;;;11.10;;
26536;SDS011;14204;51.262;5.488;2023-02-20T09:44:14;25.03;;;11.57;;
26536;SDS011;14204;51.262;5.488;2023-02-20T09:47:26;22.30;;;10.98;;
26536;SDS011;14204;51.262;5.488;2023-02-20T09:50:12;29.33;;;11.18;;
26536;SDS011;14204;51.262;5.488;2023-02-20T09:52:43;27.00;;;11.88;;
26536;SDS011;14204;51.262;5.488;2023-02-20T09:55:17;28.48;;;11.65;;
26536;SDS011;14204;51.262;5.488;2023-02-20T09:57:46;28.10;;;12.48;;
26536;SDS011;14204;51.262;5.488;2023-02-20T10:00:32;25.67;;;11.82;;
26536;SDS011;14204;51.262;5.488;2023-02-20T10:05:35;25.20;;;11.20;;
26536;SDS011;14204;51.262;5.488;2023-02-20T10:08:01;29.75;;;12.27;;
26536;SDS011;14204;51.262;5.488;2023-02-20T10:10:28;26.98;;;11.90;;
26536;SDS011;14204;51.262;5.488;2023-02-20T10:15:58;27.38;;;12.00;;
26536;SDS011;14204;51.262;5.488;2023-02-20T10:21:28;25.15;;;12.55;;
26536;SDS011;14204;51.262;5.488;2023-02-20T10:24:17;29.50;;;13.45;;
26536;SDS011;14204;51.262;5.488;2023-02-20T10:26:57;26.98;;;12.50;;
26536;SDS011;14204;51.262;5.488;2023-02-20T10:29:39;30.67;;;12.63;;
26536;SDS011;14204;51.262;5.488;2023-02-20T10:32:06;23.95;;;12.65;;
26536;SDS011;14204;51.262;5.488;2023-02-20T10:34:38;22.60;;;12.07;;
26536;SDS011;14204;51.262;5.488;2023-02-20T10:37:19;29.25;;;11.98;;
26536;SDS011;14204;51.262;5.488;2023-02-20T10:39:59;24.90;;;12.50;;
26536;SDS011;14204;51.262;5.488;2023-02-20T10:42:31;32.90;;;13.85;;
26536;SDS011;14204;51.262;5.488;2023-02-20T10:45:39;28.48;;;11.93;;
26536;SDS011;14204;51.262;5.488;2023-02-20T10:48:03;20.95;;;11.88;;
26536;SDS011;14204;51.262;5.488;2023-02-20T10:50:35;23.88;;;12.52;;
26536;SDS011;14204;51.262;5.488;2023-02-20T10:53:18;27.75;;;12.13;;
26536;SDS011;14204;51.262;5.488;2023-02-20T10:58:44;30.73;;;13.35;;
26536;SDS011;14204;51.262;5.488;2023-02-20T11:01:20;30.13;;;12.60;;
26536;SDS011;14204;51.262;5.488;2023-02-20T11:04:01;24.25;;;12.63;;
26536;SDS011;14204;51.262;5.488;2023-02-20T11:06:38;25.05;;;12.95;;
26536;SDS011;14204;51.262;5.488;2023-02-20T11:09:17;29.05;;;12.25;;
26536;SDS011;14204;51.262;5.488;2023-02-20T11:11:44;20.55;;;11.80;;
26536;SDS011;14204;51.262;5.488;2023-02-20T11:16:39;26.25;;;11.60;;
26536;SDS011;14204;51.262;5.488;2023-02-20T11:19:32;31.95;;;11.80;;
26536;SDS011;14204;51.262;5.488;2023-02-20T11:22:11;23.10;;;10.77;;
26536;SDS011;14204;51.262;5.488;2023-02-20T11:24:38;29.00;;;13.40;;
26536;SDS011;14204;51.262;5.488;2023-02-20T11:29:55;21.75;;;12.05;;
26536;SDS011;14204;51.262;5.488;2023-02-20T11:32:26;22.73;;;12.25;;
26536;SDS011;14204;51.262;5.488;2023-02-20T11:37:46;23.10;;;11.65;;
26536;SDS011;14204;51.262;5.488;2023-02-20T11:40:35;32.53;;;15.30;;
26536;SDS011;14204;51.262;5.488;2023-02-20T11:43:20;26.40;;;11.05;;
26536;SDS011;14204;51.262;5.488;2023-02-20T11:45:49;22.33;;;11.30;;
26536;SDS011;14204;51.262;5.488;2023-02-20T11:48:31;20.77;;;10.25;;
26536;SDS011;14204;51.262;5.488;2023-02-20T11:50:57;19.38;;;11.05;;
26536;SDS011;14204;51.262;5.488;2023-02-20T11:53:24;24.77;;;11.48;;
26536;SDS011;14204;51.262;5.488;2023-02-20T11:56:11;27.25;;;11.15;;
26536;SDS011;14204;51.262;5.488;2023-02-20T11:58:37;21.30;;;12.05;;
26536;SDS011;14204;51.262;5.488;2023-02-20T12:01:05;25.65;;;10.68;;
26536;SDS011;14204;51.262;5.488;2023-02-20T12:03:31;22.05;;;11.10;;
26536;SDS011;14204;51.262;5.488;2023-02-20T12:05:59;23.50;;;11.75;;
26536;SDS011;14204;51.262;5.488;2023-02-20T12:08:47;25.08;;;11.70;;
26536;SDS011;14204;51.262;5.488;2023-02-20T12:11:18;20.30;;;10.88;;
26536;SDS011;14204;51.262;5.488;2023-02-20T12:13:49;24.35;;;11.85;;
26536;SDS011;14204;51.262;5.488;2023-02-20T12:27:00;27.13;;;13.18;;
26536;SDS011;14204;51.262;5.488;2023-02-20T12:35:32;27.27;;;11.57;;
26536;SDS011;14204;51.262;5.488;2023-02-20T12:46:22;22.85;;;11.73;;
26536;SDS011;14204;51.262;5.488;2023-02-20T12:51:59;24.98;;;11.35;;
26536;SDS011;14204;51.262;5.488;2023-02-20T12:54:53;24.90;;;11.00;;
26536;SDS011;14204;51.262;5.488;2023-02-20T12:57:59;20.17;;;10.95;;
26536;SDS011;14204;51.262;5.488;2023-02-20T13:00:57;23.38;;;11.85;;
26536;SDS011;14204;51.262;5.488;2023-02-20T13:06:34;21.58;;;10.10;;
26536;SDS011;14204;51.262;5.488;2023-02-20T13:09:20;25.17;;;11.32;;
26536;SDS011;14204;51.262;5.488;2023-02-20T13:11:57;29.27;;;12.18;;
26536;SDS011;14204;51.262;5.488;2023-02-20T13:14:29;22.73;;;11.27;;
26536;SDS011;14204;51.262;5.488;2023-02-20T13:17:07;29.30;;;11.80;;
26536;SDS011;14204;51.262;5.488;2023-02-20T13:22:19;22.17;;;11.77;;
26536;SDS011;14204;51.262;5.488;2023-02-20T13:24:45;19.42;;;10.65;;
26536;SDS011;14204;51.262;5.488;2023-02-20T13:27:26;28.02;;;11.93;;
26536;SDS011;14204;51.262;5.488;2023-02-20T13:29:57;22.17;;;10.77;;
26536;SDS011;14204;51.262;5.488;2023-02-20T13:32:34;26.08;;;11.15;;
26536;SDS011;14204;51.262;5.488;2023-02-20T13:37:56;28.98;;;11.63;;
26536;SDS011;14204;51.262;5.488;2023-02-20T13:40:40;16.30;;;10.27;;
26536;SDS011;14204;51.262;5.488;2023-02-20T13:43:34;19.20;;;10.52;;
26536;SDS011;14204;51.262;5.488;2023-02-20T13:56:27;23.60;;;9.95;;
26536;SDS011;14204;51.262;5.488;2023-02-20T13:59:09;20.10;;;9.85;;
26536;SDS011;14204;51.262;5.488;2023-02-20T14:04:22;17.25;;;9.30;;
26536;SDS011;14204;51.262;5.488;2023-02-20T14:06:49;15.90;;;9.65;;
26536;SDS011;14204;51.262;5.488;2023-02-20T14:09:21;18.88;;;9.35;;
26536;SDS011;14204;51.262;5.488;2023-02-20T14:11:51;19.25;;;8.30;;
26536;SDS011;14204;51.262;5.488;2023-02-20T14:14:29;21.15;;;8.27;;
26536;SDS011;14204;51.262;5.488;2023-02-20T14:17:02;20.02;;;9.07;;
26536;SDS011;14204;51.262;5.488;2023-02-20T14:19:43;13.63;;;8.10;;
26536;SDS011;14204;51.262;5.488;2023-02-20T14:24:44;18.02;;;9.88;;
26536;SDS011;14204;51.262;5.488;2023-02-20T14:27:26;13.63;;;7.60;;
26536;SDS011;14204;51.262;5.488;2023-02-20T14:30:08;19.50;;;8.15;;
26536;SDS011;14204;51.262;5.488;2023-02-20T14:32:42;18.77;;;8.55;;
26536;SDS011;14204;51.262;5.488;2023-02-20T14:46:55;15.38;;;9.18;;
26536;SDS011;14204;51.262;5.488;2023-02-20T14:49:33;18.70;;;9.98;;
26536;SDS011;14204;51.262;5.488;2023-02-20T14:54:34;20.05;;;9.20;;
26536;SDS011;14204;51.262;5.488;2023-02-20T14:57:01;19.20;;;9.68;;
26536;SDS011;14204;51.262;5.488;2023-02-20T14:59:38;16.35;;;9.32;;
26536;SDS011;14204;51.262;5.488;2023-02-20T15:07:23;25.77;;;10.07;;
26536;SDS011;14204;51.262;5.488;2023-02-20T15:09:51;22.10;;;11.20;;
26536;SDS011;14204;51.262;5.488;2023-02-20T15:12:26;20.25;;;10.13;;
26536;SDS011;14204;51.262;5.488;2023-02-20T15:15:00;26.38;;;10.73;;
26536;SDS011;14204;51.262;5.488;2023-02-20T15:17:36;27.38;;;11.35;;
26536;SDS011;14204;51.262;5.488;2023-02-20T15:25:38;17.85;;;10.88;;
26536;SDS011;14204;51.262;5.488;2023-02-20T15:28:04;19.92;;;11.23;;
26536;SDS011;14204;51.262;5.488;2023-02-20T15:33:25;19.77;;;9.57;;
26536;SDS011;14204;51.262;5.488;2023-02-20T15:35:52;16.55;;;9.18;;
26536;SDS011;14204;51.262;5.488;2023-02-20T15:38:18;20.40;;;10.18;;
26536;SDS011;14204;51.262;5.488;2023-02-20T15:40:44;15.90;;;9.48;;
26536;SDS011;14204;51.262;5.488;2023-02-20T15:43:10;19.42;;;9.60;;
26536;SDS011;14204;51.262;5.488;2023-02-20T15:45:37;19.58;;;10.63;;
26536;SDS011;14204;51.262;5.488;2023-02-20T15:48:04;17.17;;;9.68;;
26536;SDS011;14204;51.262;5.488;2023-02-20T15:50:31;22.33;;;10.82;;
26536;SDS011;14204;51.262;5.488;2023-02-20T15:52:57;21.23;;;10.73;;
26536;SDS011;14204;51.262;5.488;2023-02-20T15:55:26;20.50;;;9.50;;
26536;SDS011;14204;51.262;5.488;2023-02-20T15:57:54;22.52;;;11.30;;
26536;SDS011;14204;51.262;5.488;2023-02-20T16:02:51;19.13;;;10.20;;
26536;SDS011;14204;51.262;5.488;2023-02-20T16:05:17;22.80;;;10.80;;
26536;SDS011;14204;51.262;5.488;2023-02-20T16:07:43;20.05;;;12.02;;
26536;SDS011;14204;51.262;5.488;2023-02-20T16:10:09;22.33;;;11.85;;
26536;SDS011;14204;51.262;5.488;2023-02-20T16:12:36;21.17;;;11.27;;
26536;SDS011;14204;51.262;5.488;2023-02-20T16:15:02;17.95;;;11.30;;
26536;SDS011;14204;51.262;5.488;2023-02-20T16:17:31;18.63;;;10.57;;
26536;SDS011;14204;51.262;5.488;2023-02-20T16:19:59;22.88;;;11.98;;
26536;SDS011;14204;51.262;5.488;2023-02-20T16:22:25;22.38;;;11.45;;
26536;SDS011;14204;51.262;5.488;2023-02-20T16:24:51;24.77;;;11.38;;
26536;SDS011;14204;51.262;5.488;2023-02-20T16:27:20;18.90;;;11.73;;
26536;SDS011;14204;51.262;5.488;2023-02-20T16:29:49;19.38;;;11.23;;
26536;SDS011;14204;51.262;5.488;2023-02-20T16:34:44;28.73;;;10.98;;
26536;SDS011;14204;51.262;5.488;2023-02-20T16:37:11;19.45;;;10.93;;
26536;SDS011;14204;51.262;5.488;2023-02-20T16:39:37;17.38;;;10.95;;
26536;SDS011;14204;51.262;5.488;2023-02-20T16:44:50;27.45;;;12.93;;
26536;SDS011;14204;51.262;5.488;2023-02-20T16:47:20;21.70;;;10.63;;
26536;SDS011;14204;51.262;5.488;2023-02-20T16:49:47;20.38;;;11.75;;
26536;SDS011;14204;51.262;5.488;2023-02-20T16:52:35;18.52;;;11.05;;
26536;SDS011;14204;51.262;5.488;2023-02-20T16:55:06;18.30;;;10.98;;
26536;SDS011;14204;51.262;5.488;2023-02-20T16:57:41;16.58;;;10.55;;